Time;durP1;ratioP1;P1;durP2;ratioP2;P2;SDS_P1;SDS_P2;PMS_P1;PMS_P2;Temp;Humidity;BMP_temperature;BMP_pressure;BME280_temperature;BME280_humidity;BME280_pressure;Samples;Min_cycle;Max_cycle;Signal;HPM_P1;HPM_P2
2022/03/17 00:01:12;;;;;;;;;;;281.90;1638.40;;;;;;5040576;28;20004;-62
2022/03/17 00:03:38;;;;;;;;;;;281.80;1638.40;;;;;;5040303;28;19929;-62
2022/03/17 00:06:05;;;;;;;;;;;281.80;1638.40;;;;;;5040417;28;20348;-62
2022/03/17 00:08:31;;;;;;;;;;;281.80;1664.00;;;;;;5040340;28;19913;-62
2022/03/17 00:10:56;;;;;;;;;;;281.80;1638.40;;;;;;5040226;28;19978;-61
2022/03/17 00:13:22;;;;;;;;;;;281.80;1664.00;;;;;;5040824;28;19909;-60
2022/03/17 00:15:48;;;;;;;;;;;281.80;1638.40;;;;;;5040379;28;19909;-61
2022/03/17 00:18:13;;;;;;;;;;;281.80;1664.00;;;;;;5041047;28;20397;-61
2022/03/17 00:20:39;;;;;;;;;;;281.70;1664.00;;;;;;5040149;28;20024;-61
2022/03/17 00:23:05;;;;;;;;;;;281.70;1664.00;;;;;;5040172;28;19916;-62
2022/03/17 00:25:31;;;;;;;;;;;281.70;1689.60;;;;;;5040358;28;19924;-61
2022/03/17 00:27:57;;;;;;;;;;;281.70;1664.00;;;;;;5040541;28;19909;-60
2022/03/17 00:30:23;;;;;;;;;;;281.70;1689.60;;;;;;5040222;28;20433;-61
2022/03/17 00:32:48;;;;;;;;;;;281.70;1689.60;;;;;;5040276;28;20003;-61
2022/03/17 00:37:59;;;;;;;;;;;281.70;1689.60;;;;;;5040475;28;19916;-61
2022/03/17 00:40:24;;;;;;;;;;;281.70;1664.00;;;;;;5040113;28;19909;-60
2022/03/17 00:42:51;;;;;;;;;;;281.70;1664.00;;;;;;5037008;28;19909;-61
2022/03/17 00:45:17;;;;;;;;;;;281.70;1689.60;;;;;;5036962;28;19970;-61
2022/03/17 00:47:43;;;;;;;;;;;281.70;1664.00;;;;;;5037050;28;20318;-61
2022/03/17 00:50:10;;;;;;;;;;;281.70;1689.60;;;;;;5037463;28;19909;-63
2022/03/17 00:52:35;;;;;;;;;;;281.70;1664.00;;;;;;5036666;28;20395;-62
2022/03/17 00:55:04;;;;;;;;;;;281.70;1664.00;;;;;;5036827;28;19960;-62
2022/03/17 00:57:30;;;;;;;;;;;281.60;1689.60;;;;;;5036748;28;19913;-62
2022/03/17 00:59:55;;;;;;;;;;;281.60;1689.60;;;;;;5036779;28;20004;-61
2022/03/17 01:02:21;;;;;;;;;;;281.60;1715.20;;;;;;5036565;28;19921;-62
2022/03/17 01:04:47;;;;;;;;;;;281.60;1689.60;;;;;;5036554;28;19928;-62
2022/03/17 01:07:13;;;;;;;;;;;281.60;1715.20;;;;;;5036673;28;19909;-62
2022/03/17 01:09:38;;;;;;;;;;;281.60;1689.60;;;;;;5036567;28;19909;-62
2022/03/17 01:12:04;;;;;;;;;;;281.60;1689.60;;;;;;5036635;28;19909;-62
2022/03/17 01:14:29;;;;;;;;;;;256.90;1689.60;;;;;;5036810;28;19944;-61
2022/03/17 01:16:55;;;;;;;;;;;256.90;1664.00;;;;;;5036443;28;20445;-61
2022/03/17 01:19:21;;;;;;;;;;;256.90;1689.60;;;;;;5036488;28;19909;-62
2022/03/17 01:21:47;;;;;;;;;;;256.90;1689.60;;;;;;5036463;28;19986;-62
2022/03/17 01:24:12;;;;;;;;;;;256.90;1689.60;;;;;;5036307;28;19996;-62
2022/03/17 01:26:38;;;;;;;;;;;256.80;1715.20;;;;;;5036369;28;20025;-62
2022/03/17 01:29:03;;;;;;;;;;;256.80;1715.20;;;;;;5036290;28;20379;-62
2022/03/17 01:31:29;;;;;;;;;;;256.80;1715.20;;;;;;5036187;28;20282;-62
2022/03/17 01:33:55;;;;;;;;;;;256.80;1715.20;;;;;;5035942;28;19955;-62
2022/03/17 01:36:20;;;;;;;;;;;256.80;1715.20;;;;;;5036042;28;19957;-62
2022/03/17 01:38:46;;;;;;;;;;;256.80;1715.20;;;;;;5035979;28;19913;-62
2022/03/17 01:41:11;;;;;;;;;;;256.80;1689.60;;;;;;5036024;28;19909;-63
2022/03/17 01:43:37;;;;;;;;;;;256.80;1715.20;;;;;;5036042;28;20403;-63
2022/03/17 01:46:02;;;;;;;;;;;256.70;1715.20;;;;;;5035877;28;19917;-61
2022/03/17 01:48:28;;;;;;;;;;;256.70;1715.20;;;;;;5036152;28;19983;-61
2022/03/17 01:50:53;;;;;;;;;;;256.70;1740.80;;;;;;5035745;28;20270;-61
2022/03/17 01:53:22;;;;;;;;;;;256.60;1715.20;;;;;;5034107;28;19947;-61
2022/03/17 01:55:48;;;;;;;;;;;256.60;1715.20;;;;;;5035787;28;19909;-62
2022/03/17 01:58:14;;;;;;;;;;;256.60;1740.80;;;;;;5035674;28;19982;-63
2022/03/17 02:00:40;;;;;;;;;;;256.60;1715.20;;;;;;5035559;28;19909;-61
2022/03/17 02:03:06;;;;;;;;;;;256.60;1740.80;;;;;;5035358;28;19925;-63
2022/03/17 02:05:34;;;;;;;;;;;256.60;1715.20;;;;;;5035553;28;20374;-63
2022/03/17 02:08:00;;;;;;;;;;;256.60;1740.80;;;;;;5035451;28;19935;-62
2022/03/17 02:10:25;;;;;;;;;;;256.60;1740.80;;;;;;5035311;28;19909;-62
2022/03/17 02:13:09;;;;;;;;;;;256.60;1715.20;;;;;;5035319;28;19909;-62
2022/03/17 02:15:35;;;;;;;;;;;256.60;1740.80;;;;;;5035081;28;19909;-62
2022/03/17 02:18:02;;;;;;;;;;;256.60;1715.20;;;;;;5035539;28;20260;-63
2022/03/17 02:20:28;;;;;;;;;;;256.60;1740.80;;;;;;5035338;28;19916;-63
2022/03/17 02:25:33;;;;;;;;;;;256.60;1766.40;;;;;;5034930;28;20351;-63
2022/03/17 02:25:41;;;;;;;;;;;256.60;1766.40;;;;;;5034991;28;19917;-63
2022/03/17 02:28:07;;;;;;;;;;;256.60;1792.00;;;;;;5035080;28;20313;-62
2022/03/17 02:30:34;;;;;;;;;;;256.70;1740.80;;;;;;5035218;28;20301;-63
2022/03/17 02:33:01;;;;;;;;;;;256.80;1740.80;;;;;;5034865;28;19910;-63
2022/03/17 02:35:28;;;;;;;;;;;256.80;1740.80;;;;;;5034988;28;20418;-63
2022/03/17 02:37:55;;;;;;;;;;;256.80;1740.80;;;;;;5034903;28;19917;-63
2022/03/17 02:40:20;;;;;;;;;;;256.70;1740.80;;;;;;5034836;28;19956;-61
2022/03/17 02:42:46;;;;;;;;;;;256.80;1740.80;;;;;;5034933;28;19917;-64
2022/03/17 02:45:12;;;;;;;;;;;256.70;1740.80;;;;;;5034477;28;20016;-62
2022/03/17 02:47:39;;;;;;;;;;;256.80;1715.20;;;;;;5035119;28;19963;-63
2022/03/17 02:50:05;;;;;;;;;;;256.80;1715.20;;;;;;5034620;28;19917;-63
2022/03/17 02:52:30;;;;;;;;;;;256.80;1715.20;;;;;;5034356;28;19943;-63
2022/03/17 02:54:56;;;;;;;;;;;256.90;1715.20;;;;;;5034753;28;19913;-63
2022/03/17 02:57:22;;;;;;;;;;;256.90;1689.60;;;;;;5034660;28;19967;-62
2022/03/17 02:59:52;;;;;;;;;;;281.60;1740.80;;;;;;5034663;28;19909;-62
2022/03/17 03:02:21;;;;;;;;;;;256.90;1689.60;;;;;;5034302;28;19913;-61
2022/03/17 03:04:47;;;;;;;;;;;281.60;1715.20;;;;;;5034484;28;19939;-61
2022/03/17 03:07:12;;;;;;;;;;;281.60;1715.20;;;;;;5034043;28;19955;-61
2022/03/17 03:09:38;;;;;;;;;;;281.60;1715.20;;;;;;5034496;28;19909;-62
2022/03/17 03:12:04;;;;;;;;;;;281.60;1715.20;;;;;;5034478;28;19913;-61
2022/03/17 03:14:30;;;;;;;;;;;281.60;1715.20;;;;;;5034188;28;19916;-61
2022/03/17 03:16:55;;;;;;;;;;;281.60;1715.20;;;;;;5034440;28;20258;-61
2022/03/17 03:19:21;;;;;;;;;;;281.60;1715.20;;;;;;5034489;28;20386;-62
2022/03/17 03:21:47;;;;;;;;;;;281.60;1715.20;;;;;;5033794;28;20274;-61
2022/03/17 03:24:13;;;;;;;;;;;281.60;1715.20;;;;;;5034030;28;19909;-63
2022/03/17 03:26:42;;;;;;;;;;;281.60;1689.60;;;;;;5034064;28;19915;-63
2022/03/17 03:29:21;;;;;;;;;;;281.60;1689.60;;;;;;5034183;28;20418;-64
2022/03/17 03:31:47;;;;;;;;;;;281.60;1689.60;;;;;;5034094;28;19952;-63
2022/03/17 03:34:12;;;;;;;;;;;281.60;1689.60;;;;;;5034244;28;20007;-64
2022/03/17 03:39:22;;;;;;;;;;;281.70;1689.60;;;;;;5034482;28;19916;-64
2022/03/17 03:41:48;;;;;;;;;;;281.70;1689.60;;;;;;5034133;28;19910;-63
2022/03/17 03:44:14;;;;;;;;;;;281.60;1689.60;;;;;;5033756;28;19913;-62
2022/03/17 03:46:40;;;;;;;;;;;281.60;1689.60;;;;;;5034250;28;20307;-62
2022/03/17 03:49:06;;;;;;;;;;;281.60;1689.60;;;;;;5034203;28;19932;-62
2022/03/17 03:51:31;;;;;;;;;;;281.70;1689.60;;;;;;5033755;28;20283;-62
2022/03/17 03:56:45;;;;;;;;;;;281.70;1689.60;;;;;;5034164;28;20374;-65
2022/03/17 03:59:20;;;;;;;;;;;281.70;1689.60;;;;;;5033851;28;19910;-64
2022/03/17 04:01:49;;;;;;;;;;;281.70;1689.60;;;;;;5033788;28;19913;-65
2022/03/17 04:04:19;;;;;;;;;;;256.90;1664.00;;;;;;5033691;28;19947;-65
2022/03/17 04:06:48;;;;;;;;;;;256.90;1664.00;;;;;;5033902;28;20359;-64
2022/03/17 04:09:14;;;;;;;;;;;256.90;1664.00;;;;;;5033970;28;19935;-64
2022/03/17 04:11:40;;;;;;;;;;;256.80;1689.60;;;;;;5033693;28;19935;-64
2022/03/17 04:14:06;;;;;;;;;;;256.90;1689.60;;;;;;5033747;28;19909;-64
2022/03/17 04:16:32;;;;;;;;;;;256.80;1664.00;;;;;;5033946;28;19909;-65
2022/03/17 04:19:15;;;;;;;;;;;256.80;1715.20;;;;;;5037556;28;19909;-64
2022/03/17 04:21:41;;;;;;;;;;;256.70;1715.20;;;;;;5037510;28;19970;-64
2022/03/17 04:24:07;;;;;;;;;;;256.70;1689.60;;;;;;5037293;28;20398;-65
2022/03/17 04:26:32;;;;;;;;;;;256.70;1715.20;;;;;;5037528;28;19924;-66
2022/03/17 04:28:58;;;;;;;;;;;256.70;1715.20;;;;;;5037429;28;19916;-64
2022/03/17 04:31:24;;;;;;;;;;;256.70;1689.60;;;;;;5037249;28;19913;-64
2022/03/17 04:33:50;;;;;;;;;;;256.70;1689.60;;;;;;5036906;28;19916;-65
2022/03/17 04:36:16;;;;;;;;;;;256.70;1715.20;;;;;;5037313;28;19909;-65
2022/03/17 04:38:42;;;;;;;;;;;256.70;1715.20;;;;;;5037255;28;20321;-65
2022/03/17 04:41:09;;;;;;;;;;;256.70;1715.20;;;;;;5037245;28;19931;-65
2022/03/17 04:43:36;;;;;;;;;;;256.70;1715.20;;;;;;5036999;28;19915;-65
2022/03/17 04:46:02;;;;;;;;;;;256.80;1715.20;;;;;;5037095;28;19917;-64
2022/03/17 04:48:27;;;;;;;;;;;256.80;1715.20;;;;;;5037010;28;19988;-65
2022/03/17 04:50:53;;;;;;;;;;;256.80;1715.20;;;;;;5036998;28;19959;-65
2022/03/17 04:53:27;;;;;;;;;;;256.70;1689.60;;;;;;5036718;28;19988;-66
2022/03/17 04:55:57;;;;;;;;;;;256.80;1689.60;;;;;;5036871;28;19996;-65
2022/03/17 04:58:23;;;;;;;;;;;256.70;1689.60;;;;;;5036934;28;19909;-66
2022/03/17 05:00:48;;;;;;;;;;;256.80;1689.60;;;;;;5036758;28;19909;-64
2022/03/17 05:03:14;;;;;;;;;;;256.80;1689.60;;;;;;5036449;28;19928;-63
2022/03/17 05:05:40;;;;;;;;;;;256.80;1715.20;;;;;;5036659;28;19917;-63
2022/03/17 05:08:06;;;;;;;;;;;256.80;1689.60;;;;;;5036571;28;20012;-63
2022/03/17 05:10:38;;;;;;;;;;;256.70;1689.60;;;;;;5036725;28;20248;-63
2022/03/17 05:13:07;;;;;;;;;;;256.70;1689.60;;;;;;5036656;28;19913;-63
2022/03/17 05:15:33;;;;;;;;;;;256.80;1689.60;;;;;;5036374;28;20037;-63
2022/03/17 05:17:59;;;;;;;;;;;256.80;1689.60;;;;;;5036549;28;19982;-61
2022/03/17 05:20:25;;;;;;;;;;;256.70;1689.60;;;;;;5035839;28;20007;-61
2022/03/17 05:22:51;;;;;;;;;;;256.80;1689.60;;;;;;5035598;28;19971;-61
2022/03/17 05:25:16;;;;;;;;;;;256.80;1689.60;;;;;;5035468;28;19925;-61
2022/03/17 05:27:42;;;;;;;;;;;256.90;1664.00;;;;;;5035908;28;19910;-61
2022/03/17 05:30:09;;;;;;;;;;;256.90;1664.00;;;;;;5032020;28;20374;-61
2022/03/17 05:32:34;;;;;;;;;;;256.90;1689.60;;;;;;5035499;28;19913;-61
2022/03/17 05:35:00;;;;;;;;;;;256.80;1664.00;;;;;;5035447;28;19915;-60
2022/03/17 05:37:25;;;;;;;;;;;256.70;1664.00;;;;;;5033947;28;19909;-61
2022/03/17 05:39:51;;;;;;;;;;;256.70;1664.00;;;;;;5035928;28;20318;-61
2022/03/17 05:42:17;;;;;;;;;;;256.60;1664.00;;;;;;5035414;28;20067;-61
2022/03/17 05:44:42;;;;;;;;;;;256.70;1689.60;;;;;;5035251;28;19924;-60
2022/03/17 05:47:08;;;;;;;;;;;256.60;1664.00;;;;;;5035330;28;19962;-60
2022/03/17 05:49:34;;;;;;;;;;;256.50;1689.60;;;;;;5036102;28;19913;-61
2022/03/17 05:51:59;;;;;;;;;;;256.50;1689.60;;;;;;5035841;28;19964;-61
2022/03/17 05:54:25;;;;;;;;;;;256.50;1689.60;;;;;;5035244;28;19913;-61
2022/03/17 05:56:50;;;;;;;;;;;256.40;1689.60;;;;;;5025969;28;19909;-64
2022/03/17 05:59:16;;;;;;;;;;;256.40;1715.20;;;;;;5035363;28;19915;-61
2022/03/17 06:01:41;;;;;;;;;;;256.50;1715.20;;;;;;5034649;28;19936;-61
2022/03/17 06:04:07;;;;;;;;;;;256.50;1689.60;;;;;;5034935;28;19913;-61
2022/03/17 06:06:33;;;;;;;;;;;256.50;1715.20;;;;;;5035068;28;20381;-63
2022/03/17 06:08:58;;;;;;;;;;;256.60;1715.20;;;;;;5035450;28;19959;-63
2022/03/17 06:11:24;;;;;;;;;;;256.50;1689.60;;;;;;5035357;28;19919;-62
2022/03/17 06:13:49;;;;;;;;;;;256.50;1715.20;;;;;;5035313;28;19910;-62
2022/03/17 06:16:15;;;;;;;;;;;256.50;1715.20;;;;;;5035462;28;19909;-63
2022/03/17 06:18:41;;;;;;;;;;;256.50;1715.20;;;;;;5035224;28;20429;-63
2022/03/17 06:21:07;;;;;;;;;;;256.50;1715.20;;;;;;5035167;28;19936;-62
2022/03/17 06:23:32;;;;;;;;;;;256.50;1715.20;;;;;;5034734;28;20382;-61
2022/03/17 06:25:58;;;;;;;;;;;256.60;1689.60;;;;;;5034677;28;19917;-61
2022/03/17 06:28:23;;;;;;;;;;;256.50;1689.60;;;;;;5035092;28;19991;-62
2022/03/17 06:30:49;;;;;;;;;;;256.60;1689.60;;;;;;5034931;28;19909;-62
2022/03/17 06:33:16;;;;;;;;;;;256.60;1689.60;;;;;;5034800;28;20351;-62
2022/03/17 06:35:42;;;;;;;;;;;256.60;1689.60;;;;;;5034747;28;19963;-63
2022/03/17 06:38:08;;;;;;;;;;;256.50;1689.60;;;;;;5034669;28;19909;-62
2022/03/17 06:40:35;;;;;;;;;;;256.50;1689.60;;;;;;5033580;28;19909;-62
2022/03/17 06:43:01;;;;;;;;;;;256.60;1689.60;;;;;;5034692;28;19917;-63
2022/03/17 06:45:27;;;;;;;;;;;256.60;1664.00;;;;;;5034681;28;19924;-63
2022/03/17 06:47:53;;;;;;;;;;;256.60;1664.00;;;;;;5034270;28;20271;-63
2022/03/17 06:50:22;;;;;;;;;;;256.50;1664.00;;;;;;5034569;28;19910;-62
2022/03/17 06:52:48;;;;;;;;;;;256.50;1664.00;;;;;;5034479;28;19909;-63
2022/03/17 06:55:14;;;;;;;;;;;256.50;1664.00;;;;;;5034480;28;20063;-61
2022/03/17 06:57:39;;;;;;;;;;;256.50;1664.00;;;;;;5033168;28;20382;-61
2022/03/17 07:00:06;;;;;;;;;;;256.50;1664.00;;;;;;5034258;28;20007;-61
2022/03/17 07:02:32;;;;;;;;;;;256.60;1664.00;;;;;;5034198;28;20008;-60
2022/03/17 07:04:57;;;;;;;;;;;256.70;1638.40;;;;;;5034381;28;20409;-61
2022/03/17 07:07:23;;;;;;;;;;;256.70;1638.40;;;;;;5034264;28;20060;-62
2022/03/17 07:09:49;;;;;;;;;;;256.70;1612.80;;;;;;5034523;28;20302;-64
2022/03/17 07:12:15;;;;;;;;;;;256.70;1612.80;;;;;;5034351;28;19909;-62
2022/03/17 07:14:40;;;;;;;;;;;256.80;1612.80;;;;;;5033323;28;19917;-62
2022/03/17 07:17:07;;;;;;;;;;;256.70;1612.80;;;;;;5032798;28;19917;-63
2022/03/17 07:19:32;;;;;;;;;;;256.60;1638.40;;;;;;5032797;28;19909;-64
2022/03/17 07:21:58;;;;;;;;;;;256.60;1612.80;;;;;;5032652;28;20005;-63
2022/03/17 07:24:23;;;;;;;;;;;256.50;1612.80;;;;;;5032652;28;20407;-63
2022/03/17 07:26:49;;;;;;;;;;;256.40;1638.40;;;;;;5032037;28;19909;-63
2022/03/17 07:29:15;;;;;;;;;;;256.30;1638.40;;;;;;5025469;28;20323;-62
2022/03/17 07:31:40;;;;;;;;;;;256.30;1638.40;;;;;;5033884;28;19913;-61
2022/03/17 07:34:06;;;;;;;;;;;256.30;1664.00;;;;;;5033937;28;20178;-62
2022/03/17 07:36:32;;;;;;;;;;;256.30;1638.40;;;;;;5033670;28;20275;-60
2022/03/17 07:38:58;;;;;;;;;;;256.30;1664.00;;;;;;5033794;28;19988;-63
2022/03/17 07:41:24;;;;;;;;;;;256.30;1664.00;;;;;;5032908;28;20007;-62
2022/03/17 07:43:50;;;;;;;;;;;256.30;1638.40;;;;;;5033738;28;19909;-63
2022/03/17 07:46:16;;;;;;;;;;;256.20;1664.00;;;;;;5033971;28;19924;-63
2022/03/17 07:48:41;;;;;;;;;;;256.20;1664.00;;;;;;5034059;28;19956;-62
2022/03/17 07:51:08;;;;;;;;;;;256.20;1664.00;;;;;;5033988;28;19948;-62
2022/03/17 07:53:34;;;;;;;;;;;256.30;1664.00;;;;;;5037416;28;19920;-61
2022/03/17 07:56:00;;;;;;;;;;;256.40;1689.60;;;;;;5038044;28;19909;-61
2022/03/17 07:58:26;;;;;;;;;;;256.40;1689.60;;;;;;5038042;28;20004;-62
2022/03/17 08:00:52;;;;;;;;;;;256.50;1689.60;;;;;;5038065;28;20328;-62
2022/03/17 08:03:18;;;;;;;;;;;256.50;1664.00;;;;;;5037591;28;20059;-62
2022/03/17 08:05:46;;;;;;;;;;;256.60;1664.00;;;;;;5037817;28;19956;-61
2022/03/17 08:08:12;;;;;;;;;;;256.60;1664.00;;;;;;5037635;28;20335;-61
2022/03/17 08:10:38;;;;;;;;;;;256.60;1664.00;;;;;;5037658;28;20291;-61
2022/03/17 08:13:05;;;;;;;;;;;256.70;1664.00;;;;;;5037569;28;19924;-61
2022/03/17 08:15:31;;;;;;;;;;;256.70;1664.00;;;;;;5037554;28;20410;-63
2022/03/17 08:17:56;;;;;;;;;;;256.70;1664.00;;;;;;5037702;28;19936;-61
2022/03/17 08:20:22;;;;;;;;;;;256.70;1664.00;;;;;;5037729;28;19916;-62
2022/03/17 08:22:49;;;;;;;;;;;256.70;1664.00;;;;;;5037424;28;20264;-61
2022/03/17 08:25:16;;;;;;;;;;;256.80;1664.00;;;;;;5037364;28;19917;-61
2022/03/17 08:27:42;;;;;;;;;;;256.90;1664.00;;;;;;5037136;28;19963;-61
2022/03/17 08:30:08;;;;;;;;;;;281.60;1689.60;;;;;;5037390;28;19910;-61
2022/03/17 08:32:34;;;;;;;;;;;281.60;1664.00;;;;;;5037269;28;20302;-62
2022/03/17 08:34:59;;;;;;;;;;;281.70;1689.60;;;;;;5037324;28;19909;-62
2022/03/17 08:37:25;;;;;;;;;;;281.70;1664.00;;;;;;5035670;28;19942;-61
2022/03/17 08:39:51;;;;;;;;;;;281.80;1689.60;;;;;;5037219;28;19909;-61
2022/03/17 08:42:17;;;;;;;;;;;281.90;1664.00;;;;;;5037295;28;19932;-61
2022/03/17 08:44:42;;;;;;;;;;;281.90;1664.00;;;;;;5037035;28;20375;-61
2022/03/17 08:49:51;;;;;;;;;;;281.90;1638.40;;;;;;5037076;28;19916;-61
2022/03/17 08:52:19;;;;;;;;;;;282.00;1664.00;;;;;;5037203;28;19909;-62
2022/03/17 08:54:45;;;;;;;;;;;282.10;1664.00;;;;;;5036693;28;19929;-63
2022/03/17 08:57:11;;;;;;;;;;;282.10;1638.40;;;;;;5036897;28;19909;-61
2022/03/17 08:59:36;;;;;;;;;;;282.20;1638.40;;;;;;5036904;28;19910;-61
2022/03/17 09:02:06;;;;;;;;;;;282.30;1638.40;;;;;;5036658;28;19928;-61
2022/03/17 09:04:32;;;;;;;;;;;282.30;1638.40;;;;;;5035723;28;19915;-61
2022/03/17 09:07:01;;;;;;;;;;;282.40;1612.80;;;;;;5036793;28;20008;-61
2022/03/17 09:09:27;;;;;;;;;;;282.40;1638.40;;;;;;5036769;28;19931;-61
2022/03/17 09:11:53;;;;;;;;;;;307.20;1638.40;;;;;;5037119;28;20398;-61
2022/03/17 09:14:20;;;;;;;;;;;307.20;1638.40;;;;;;5036913;28;19915;-61
2022/03/17 09:16:45;;;;;;;;;;;307.20;1638.40;;;;;;5036633;28;20278;-61
2022/03/17 09:19:11;;;;;;;;;;;307.30;1612.80;;;;;;5036519;28;19909;-61
2022/03/17 09:21:37;;;;;;;;;;;307.30;1612.80;;;;;;5036552;28;19910;-61
2022/03/17 09:24:03;;;;;;;;;;;307.30;1612.80;;;;;;5036131;28;20370;-61
2022/03/17 09:26:30;;;;;;;;;;;307.40;1612.80;;;;;;5036374;28;19975;-61
2022/03/17 09:28:55;;;;;;;;;;;307.40;1612.80;;;;;;5036174;28;19959;-60
2022/03/17 09:31:22;;;;;;;;;;;307.30;1612.80;;;;;;5036194;28;19986;-60
2022/03/17 09:33:48;;;;;;;;;;;307.40;1638.40;;;;;;5036287;28;19909;-62
2022/03/17 09:36:14;;;;;;;;;;;307.30;1638.40;;;;;;5036120;28;19935;-61
2022/03/17 09:38:41;;;;;;;;;;;307.30;1638.40;;;;;;5035549;28;19909;-61
2022/03/17 09:41:23;;;;;;;;;;;307.30;1664.00;;;;;;5036143;28;19909;-61
2022/03/17 09:43:50;;;;;;;;;;;307.30;1638.40;;;;;;5036157;28;20252;-61
2022/03/17 09:46:17;;;;;;;;;;;307.30;1664.00;;;;;;5035906;28;20359;-61
2022/03/17 09:48:44;;;;;;;;;;;307.30;1664.00;;;;;;5035985;28;19910;-61
2022/03/17 09:51:10;;;;;;;;;;;307.20;1664.00;;;;;;5035892;28;19916;-61
2022/03/17 09:53:35;;;;;;;;;;;307.30;1664.00;;;;;;5035774;28;20268;-62
2022/03/17 09:56:01;;;;;;;;;;;307.30;1664.00;;;;;;5036004;28;19915;-61
2022/03/17 09:58:27;;;;;;;;;;;307.30;1664.00;;;;;;5035603;28;20271;-61
2022/03/17 10:00:53;;;;;;;;;;;307.30;1664.00;;;;;;5035571;28;19959;-61
2022/03/17 10:03:25;;;;;;;;;;;307.30;1664.00;;;;;;5035506;28;19928;-62
2022/03/17 10:05:51;;;;;;;;;;;307.30;1664.00;;;;;;5035589;28;19924;-62
2022/03/17 10:08:18;;;;;;;;;;;307.40;1638.40;;;;;;5035606;28;19924;-62
2022/03/17 10:10:43;;;;;;;;;;;307.40;1664.00;;;;;;5035637;28;19916;-63
2022/03/17 10:13:17;;;;;;;;;;;307.30;1664.00;;;;;;5035369;28;19992;-61
2022/03/17 10:15:46;;;;;;;;;;;307.20;1638.40;;;;;;5035161;28;20343;-62
2022/03/17 10:18:20;;;;;;;;;;;307.20;1664.00;;;;;;5035435;28;19909;-61
2022/03/17 10:20:46;;;;;;;;;;;282.50;1638.40;;;;;;5035268;28;20374;-65
2022/03/17 10:23:12;;;;;;;;;;;282.50;1664.00;;;;;;5035295;28;19914;-67
2022/03/17 10:25:38;;;;;;;;;;;307.20;1689.60;;;;;;5035146;28;19917;-62
2022/03/17 10:28:04;;;;;;;;;;;282.50;1638.40;;;;;;5035169;28;20378;-61
2022/03/17 10:30:33;;;;;;;;;;;282.50;1664.00;;;;;;5035435;28;19959;-72
2022/03/17 10:33:01;;;;;;;;;;;307.20;1664.00;;;;;;5035315;28;20000;-66
2022/03/17 10:35:36;;;;;;;;;;;307.20;1664.00;;;;;;5034999;28;19916;-63
2022/03/17 10:38:12;;;;;;;;;;;307.50;1817.60;;;;;;5034768;28;19909;-62
2022/03/17 10:40:38;;;;;;;;;;;308.10;1766.40;;;;;;5035086;28;19909;-58
2022/03/17 10:43:22;;;;;;;;;;;333.10;1689.60;;;;;;5034807;28;20342;-63
2022/03/17 10:46:02;;;;;;;;;;;333.10;1612.80;;;;;;5034978;28;19987;-61
2022/03/17 10:48:28;;;;;;;;;;;333.10;1612.80;;;;;;5034903;28;19913;-65
2022/03/17 10:50:53;;;;;;;;;;;333.00;1587.20;;;;;;5034916;28;19913;-61
2022/03/17 10:53:26;;;;;;;;;;;332.90;1561.60;;;;;;5033021;28;19913;-57
2022/03/17 10:55:51;;;;;;;;;;;332.90;1561.60;;;;;;5033254;28;19913;-60
2022/03/17 10:58:18;;;;;;;;;;;332.90;1561.60;;;;;;5033293;28;20247;-62
2022/03/17 11:01:10;;;;;;;;;;;332.90;1561.60;;;;;;5033186;28;19920;-59
2022/03/17 11:03:36;;;;;;;;;;;332.90;1561.60;;;;;;5028302;28;19921;-58
2022/03/17 11:06:06;;;;;;;;;;;332.90;1561.60;;;;;;5034421;28;19917;-57
2022/03/17 11:08:32;;;;;;;;;;;332.90;1561.60;;;;;;5034420;28;19995;-57
2022/03/17 11:10:57;;;;;;;;;;;332.90;1561.60;;;;;;5034506;28;20418;-63
2022/03/17 11:13:23;;;;;;;;;;;332.80;1561.60;;;;;;5034154;28;19933;-59
2022/03/17 11:16:07;;;;;;;;;;;332.80;1561.60;;;;;;5024778;28;19954;-66
2022/03/17 11:18:35;;;;;;;;;;;332.80;1561.60;;;;;;5033197;28;19999;-58
2022/03/17 11:21:12;;;;;;;;;;;332.80;1561.60;;;;;;5033352;28;20306;-65
2022/03/17 11:23:57;;;;;;;;;;;332.80;1561.60;;;;;;5030842;28;19996;-58
2022/03/17 11:26:23;;;;;;;;;;;332.80;1561.60;;;;;;5031366;28;19986;-60
2022/03/17 11:28:48;;;;;;;;;;;332.80;1561.60;;;;;;5033493;28;19909;-59
2022/03/17 11:31:17;;;;;;;;;;;332.80;1587.20;;;;;;5033236;28;19913;-60
2022/03/17 11:33:43;;;;;;;;;;;332.80;1561.60;;;;;;5033416;28;20042;-57
2022/03/17 11:36:08;;;;;;;;;;;332.80;1561.60;;;;;;5031969;28;19945;-56
2022/03/17 11:38:38;;;;;;;;;;;332.90;1561.60;;;;;;5033466;28;19924;-57
2022/03/17 11:41:14;;;;;;;;;;;332.90;1561.60;;;;;;5033519;28;19909;-63
2022/03/17 11:43:41;;;;;;;;;;;332.90;1561.60;;;;;;5031315;28;20378;-59
2022/03/17 11:46:13;;;;;;;;;;;332.90;1536.00;;;;;;5033472;28;19921;-60
2022/03/17 11:48:40;;;;;;;;;;;332.90;1536.00;;;;;;5031437;28;20310;-59
2022/03/17 11:51:06;;;;;;;;;;;332.90;1536.00;;;;;;5033292;28;19909;-63
2022/03/17 11:53:37;;;;;;;;;;;333.00;1510.40;;;;;;5033336;28;19917;-56
2022/03/17 11:56:02;;;;;;;;;;;333.00;1510.40;;;;;;5032052;28;19991;-59
2022/03/17 11:58:29;;;;;;;;;;;333.00;1510.40;;;;;;5032378;28;20013;-57
2022/03/17 12:00:55;;;;;;;;;;;333.00;1510.40;;;;;;5033010;28;19935;-57
2022/03/17 12:03:29;;;;;;;;;;;333.00;1510.40;;;;;;5030387;28;20383;-57
2022/03/17 12:06:05;;;;;;;;;;;333.00;1510.40;;;;;;5033126;28;20019;-64
2022/03/17 12:08:41;;;;;;;;;;;333.00;1510.40;;;;;;5031723;28;19909;-59
2022/03/17 12:11:08;;;;;;;;;;;333.00;1510.40;;;;;;5030765;28;19913;-57
2022/03/17 12:13:37;;;;;;;;;;;333.00;1510.40;;;;;;5033150;28;19914;-57
2022/03/17 12:16:03;;;;;;;;;;;333.00;1510.40;;;;;;5032238;28;20003;-59
2022/03/17 12:18:29;;;;;;;;;;;333.00;1510.40;;;;;;5029148;28;19925;-57
2022/03/17 12:20:54;;;;;;;;;;;333.00;1510.40;;;;;;5032446;28;19917;-62
2022/03/17 12:23:39;;;;;;;;;;;333.00;1510.40;;;;;;5032142;28;20282;-57
2022/03/17 12:26:05;;;;;;;;;;;333.00;1510.40;;;;;;5032800;28;19933;-58
2022/03/17 12:28:30;;;;;;;;;;;333.00;1484.80;;;;;;5030913;28;19921;-58
2022/03/17 12:30:57;;;;;;;;;;;333.00;1510.40;;;;;;5032487;28;20003;-57
2022/03/17 12:33:23;;;;;;;;;;;333.00;1510.40;;;;;;5032712;28;19909;-57
2022/03/17 12:36:02;;;;;;;;;;;333.00;1484.80;;;;;;5029627;28;19955;-56
2022/03/17 12:38:28;;;;;;;;;;;333.10;1484.80;;;;;;5033927;28;19966;-59
2022/03/17 12:40:54;;;;;;;;;;;333.10;1484.80;;;;;;5036010;28;19917;-58
2022/03/17 12:43:21;;;;;;;;;;;333.10;1484.80;;;;;;5036059;28;19928;-58
2022/03/17 12:45:48;;;;;;;;;;;333.00;1484.80;;;;;;5035390;28;19935;-56
2022/03/17 12:48:14;;;;;;;;;;;333.00;1484.80;;;;;;5036292;28;20263;-60
2022/03/17 12:50:40;;;;;;;;;;;333.00;1484.80;;;;;;5035509;28;20055;-59
2022/03/17 12:53:05;;;;;;;;;;;333.00;1484.80;;;;;;5035323;28;19913;-63
2022/03/17 12:55:31;;;;;;;;;;;333.10;1484.80;;;;;;5036221;28;20016;-65
2022/03/17 12:57:57;;;;;;;;;;;333.10;1484.80;;;;;;5036590;28;19915;-66
2022/03/17 13:00:23;;;;;;;;;;;333.10;1484.80;;;;;;5036315;28;20363;-59
2022/03/17 13:02:50;;;;;;;;;;;333.10;1484.80;;;;;;5036391;28;20008;-60
2022/03/17 13:08:01;;;;;;;;;;;333.10;1484.80;;;;;;5036645;28;20313;-61
2022/03/17 13:10:27;;;;;;;;;;;333.10;1459.20;;;;;;5036662;28;19909;-59
2022/03/17 13:15:38;;;;;;;;;;;333.10;1459.20;;;;;;5035995;28;19915;-59
2022/03/17 13:18:04;;;;;;;;;;;333.10;1459.20;;;;;;5036548;28;19909;-59
2022/03/17 13:20:30;;;;;;;;;;;333.10;1433.60;;;;;;5036120;28;19909;-59
2022/03/17 13:22:59;;;;;;;;;;;333.10;1459.20;;;;;;5035982;28;19909;-59
2022/03/17 13:25:25;;;;;;;;;;;333.10;1459.20;;;;;;5036075;28;19921;-59
2022/03/17 13:27:54;;;;;;;;;;;333.10;1433.60;;;;;;5036389;28;19909;-59
2022/03/17 13:30:20;;;;;;;;;;;333.10;1433.60;;;;;;5035890;28;19910;-59
2022/03/17 13:32:57;;;;;;;;;;;333.10;1459.20;;;;;;5036122;28;19920;-60
2022/03/17 13:35:23;;;;;;;;;;;333.20;1433.60;;;;;;5036011;28;19916;-59
2022/03/17 13:37:50;;;;;;;;;;;333.20;1433.60;;;;;;5035880;28;19915;-59
2022/03/17 13:40:17;;;;;;;;;;;333.10;1459.20;;;;;;5036044;28;19909;-59
2022/03/17 13:43:01;;;;;;;;;;;333.10;1459.20;;;;;;5036333;28;20385;-59
2022/03/17 13:45:53;;;;;;;;;;;333.20;1459.20;;;;;;5035660;28;19972;-61
2022/03/17 13:48:22;;;;;;;;;;;333.10;1484.80;;;;;;5032712;28;19952;-59
2022/03/17 13:50:48;;;;;;;;;;;333.20;1459.20;;;;;;5034874;28;20370;-59
2022/03/17 13:53:14;;;;;;;;;;;333.20;1459.20;;;;;;5035628;28;19909;-59
2022/03/17 13:55:52;;;;;;;;;;;333.30;1459.20;;;;;;5035472;28;19909;-64
2022/03/17 13:58:24;;;;;;;;;;;333.30;1459.20;;;;;;5035526;28;19951;-58